Time;durP1;ratioP1;P1;durP2;ratioP2;P2;SDS_P1;SDS_P2;PMS_P1;PMS_P2;Temp;Humidity;BMP_temperature;BMP_pressure;BME280_temperature;BME280_humidity;BME280_pressure;Samples;Min_cycle;Max_cycle;Signal;HPM_P1;HPM_P2
2021/12/21 00:00:56;;;;;;;30.25;14.10;;;-0.50;99.90;;;;;;5072029;28;20020;-85
2021/12/21 00:03:22;;;;;;;28.58;12.45;;;-0.50;99.90;;;;;;5071841;28;20039;-85
2021/12/21 00:05:48;;;;;;;25.85;12.95;;;-0.40;99.90;;;;;;5073507;28;20020;-85
2021/12/21 00:08:16;;;;;;;29.50;12.65;;;-0.40;99.90;;;;;;5072849;28;20112;-85
2021/12/21 00:10:44;;;;;;;28.88;12.55;;;-0.30;99.90;;;;;;5071857;28;20111;-85
2021/12/21 00:13:25;;;;;;;23.38;12.05;;;-0.50;99.90;;;;;;5071832;28;20102;-85
2021/12/21 00:16:08;;;;;;;28.02;12.07;;;-0.50;99.90;;;;;;5073646;28;20048;-85
2021/12/21 00:18:44;;;;;;;28.65;12.65;;;-0.20;99.90;;;;;;5071726;28;20056;-85
2021/12/21 00:21:24;;;;;;;29.02;11.68;;;-0.20;99.90;;;;;;5071716;28;20056;-85
2021/12/21 00:23:52;;;;;;;32.33;11.68;;;0.10;99.90;;;;;;5073232;28;20388;-85
2021/12/21 00:26:20;;;;;;;26.27;10.98;;;0.00;99.90;;;;;;5071673;28;20020;-85
2021/12/21 00:29:02;;;;;;;27.45;11.18;;;-0.40;99.90;;;;;;5071678;28;20548;-85
2021/12/21 00:31:31;;;;;;;27.98;11.30;;;-0.40;99.90;;;;;;5071632;28;20020;-85
2021/12/21 00:33:58;;;;;;;28.65;11.68;;;-0.30;99.90;;;;;;5071614;28;20025;-85
2021/12/21 00:36:29;;;;;;;22.35;10.52;;;-0.30;99.90;;;;;;5072857;28;20465;-85
2021/12/21 00:38:57;;;;;;;23.88;11.35;;;-0.30;99.90;;;;;;5071892;28;20029;-84
2021/12/21 00:41:25;;;;;;;23.55;10.75;;;-0.20;99.90;;;;;;5093482;28;20453;-85
2021/12/21 00:43:53;;;;;;;24.73;9.82;;;-0.30;99.90;;;;;;5092965;28;20036;-85
2021/12/21 00:46:19;;;;;;;29.02;10.98;;;-0.30;99.90;;;;;;5074781;28;20031;-85
2021/12/21 00:48:51;;;;;;;26.80;11.38;;;-0.10;99.90;;;;;;5092841;28;20484;-85
2021/12/21 00:51:19;;;;;;;31.77;11.50;;;-0.40;99.90;;;;;;5093199;28;20024;-85
2021/12/21 00:53:45;;;;;;;27.45;10.32;;;-0.70;99.90;;;;;;5092799;28;20032;-84
2021/12/21 00:56:11;;;;;;;23.00;9.77;;;-0.60;99.90;;;;;;5074736;28;20117;-85
2021/12/21 00:58:36;;;;;;;21.95;9.70;;;-0.60;99.90;;;;;;5074759;28;20038;-85
2021/12/21 01:01:05;;;;;;;21.60;9.18;;;-0.80;99.90;;;;;;5074709;28;20025;-85
2021/12/21 01:03:37;;;;;;;24.33;9.23;;;-1.00;99.90;;;;;;5092691;28;20074;-85
2021/12/21 01:06:26;;;;;;;23.90;11.55;;;-0.50;99.90;;;;;;5092839;28;20020;-85
2021/12/21 01:09:11;;;;;;;23.50;10.75;;;-0.40;99.90;;;;;;5093277;28;20169;-85
2021/12/21 01:11:46;;;;;;;22.52;9.98;;;-0.60;99.90;;;;;;5074661;28;20115;-85
2021/12/21 01:14:55;;;;;;;26.23;10.57;;;-0.60;99.90;;;;;;5092710;28;20378;-85
2021/12/21 01:17:26;;;;;;;22.95;11.32;;;-0.70;99.90;;;;;;5092527;28;20497;-85
2021/12/21 01:23:14;;;;;;;18.02;8.98;;;-0.50;99.90;;;;;;5092343;28;20403;-85
2021/12/21 01:25:43;;;;;;;18.70;8.60;;;-0.70;99.90;;;;;;5095704;28;20080;-85
2021/12/21 01:35:48;;;;;;;21.83;8.75;;;-0.60;99.90;;;;;;5096254;28;20012;-85
2021/12/21 01:39:40;;;;;;;19.10;8.80;;;-0.50;99.90;;;;;;5096198;28;20024;-84
2021/12/21 01:41:31;;;;;;;18.92;8.05;;;-0.60;99.90;;;;;;5082313;28;20197;-85
2021/12/21 01:49:43;;;;;;;16.63;7.68;;;-0.90;99.90;;;;;;5096387;28;19907;-85
2021/12/21 01:52:21;;;;;;;19.90;7.68;;;-0.80;99.90;;;;;;5077651;28;20034;-85
2021/12/21 01:54:48;;;;;;;19.48;7.72;;;-0.40;99.90;;;;;;5077783;28;20395;-85
2021/12/21 01:57:14;;;;;;;21.98;8.07;;;-0.60;99.90;;;;;;5096105;28;20024;-85
2021/12/21 01:59:41;;;;;;;20.40;8.48;;;-0.50;99.90;;;;;;5096093;28;20093;-85
2021/12/21 02:02:10;;;;;;;16.98;7.95;;;-0.40;99.90;;;;;;5077570;28;20024;-85
2021/12/21 02:04:37;;;;;;;18.77;8.45;;;-0.40;99.90;;;;;;5095704;28;20020;-85
2021/12/21 02:07:05;;;;;;;17.77;7.75;;;-0.30;99.90;;;;;;5077448;28;20024;-85
2021/12/21 02:09:37;;;;;;;19.40;7.80;;;-0.20;99.90;;;;;;5077517;28;20475;-85
2021/12/21 02:12:11;;;;;;;20.33;7.30;;;-0.40;99.90;;;;;;5077442;28;20028;-85
2021/12/21 02:14:38;;;;;;;15.52;6.95;;;-0.20;99.90;;;;;;5077375;28;20032;-85
2021/12/21 02:17:44;;;;;;;18.70;7.88;;;-0.20;99.90;;;;;;5077339;28;20036;-85
2021/12/21 02:20:00;;;;;;;16.35;7.30;;;-0.20;99.90;;;;;;5093703;28;20045;-85
2021/12/21 02:22:30;;;;;;;15.95;6.90;;;-0.40;99.90;;;;;;5077164;28;20059;-84
2021/12/21 02:26:03;;;;;;;18.40;7.60;;;-0.50;99.90;;;;;;5095988;28;20042;-85
2021/12/21 02:27:54;;;;;;;13.88;7.05;;;-0.80;99.90;;;;;;5084437;28;20032;-85
2021/12/21 02:30:19;;;;;;;18.77;7.65;;;-0.50;99.90;;;;;;5076924;28;20027;-85
2021/12/21 02:32:45;;;;;;;17.75;7.28;;;-0.30;99.90;;;;;;5095357;28;20099;-85
2021/12/21 02:35:11;;;;;;;15.02;6.70;;;-0.90;99.90;;;;;;5076941;28;20028;-85
2021/12/21 02:37:37;;;;;;;14.35;7.57;;;-0.90;99.90;;;;;;5095014;28;20024;-85
2021/12/21 02:40:04;;;;;;;16.13;7.25;;;-0.70;99.90;;;;;;5094808;28;20047;-85
2021/12/21 02:42:30;;;;;;;16.90;6.78;;;-0.60;99.90;;;;;;5076762;28;20040;-85
2021/12/21 02:44:56;;;;;;;16.60;6.97;;;-0.60;99.90;;;;;;5094947;28;20025;-85
2021/12/21 02:47:22;;;;;;;16.30;6.43;;;-0.60;99.90;;;;;;5094793;28;20043;-85
2021/12/21 02:49:48;;;;;;;17.83;6.70;;;-0.90;99.90;;;;;;5076734;28;20101;-85
2021/12/21 02:52:13;;;;;;;18.30;7.28;;;-0.70;99.90;;;;;;5076553;28;20036;-85
2021/12/21 02:54:39;;;;;;;15.38;6.53;;;-0.50;99.90;;;;;;5076569;28;20024;-85
2021/12/21 02:57:05;;;;;;;15.40;6.30;;;-0.60;99.90;;;;;;5076520;28;20085;-85
2021/12/21 02:59:31;;;;;;;17.33;6.50;;;-0.80;99.90;;;;;;5094641;28;20054;-85
2021/12/21 03:01:57;;;;;;;17.17;6.35;;;-0.70;99.90;;;;;;5094495;28;20484;-85
2021/12/21 03:04:22;;;;;;;13.30;6.47;;;-0.70;99.90;;;;;;5094529;28;20044;-85
2021/12/21 03:07:53;;;;;;;14.00;6.50;;;-0.70;99.90;;;;;;5095092;28;20028;-86
2021/12/21 03:09:40;;;;;;;20.27;6.75;;;-0.80;99.90;;;;;;5083616;28;20031;-86
2021/12/21 03:14:49;;;;;;;17.40;6.68;;;-0.70;99.90;;;;;;5094726;28;20085;-86
2021/12/21 03:17:16;;;;;;;13.90;6.45;;;-0.60;99.90;;;;;;5094316;28;20035;-86
2021/12/21 03:19:42;;;;;;;15.20;6.15;;;-0.60;99.90;;;;;;5094310;28;20036;-86
2021/12/21 03:22:09;;;;;;;13.55;6.20;;;-0.80;99.90;;;;;;5076004;28;20055;-85
2021/12/21 03:24:35;;;;;;;12.52;6.60;;;-0.70;99.90;;;;;;5094193;28;20020;-86
2021/12/21 03:27:02;;;;;;;13.00;6.00;;;-0.60;99.90;;;;;;5076049;28;20498;-86
2021/12/21 03:29:28;;;;;;;15.88;6.70;;;-0.70;99.90;;;;;;5075919;28;20016;-86
2021/12/21 03:31:54;;;;;;;13.32;5.78;;;-0.40;99.90;;;;;;5075862;28;20491;-86
2021/12/21 03:34:21;;;;;;;16.75;6.63;;;-0.40;99.90;;;;;;5075778;28;20035;-86
2021/12/21 03:36:47;;;;;;;16.58;6.05;;;-0.60;99.90;;;;;;5075759;28;20032;-85
2021/12/21 03:39:19;;;;;;;13.80;6.07;;;-0.80;99.90;;;;;;5075506;28;20052;-86
2021/12/21 03:41:54;;;;;;;15.02;6.07;;;-0.50;99.90;;;;;;5075581;28;20028;-86
2021/12/21 03:44:21;;;;;;;17.63;6.05;;;-0.40;99.90;;;;;;5093588;28;20059;-86
2021/12/21 03:46:49;;;;;;;10.45;5.28;;;-0.60;99.90;;;;;;5075638;28;20483;-86
2021/12/21 03:50:10;;;;;;;13.82;5.60;;;-0.30;99.90;;;;;;5075454;28;20020;-86
2021/12/21 03:52:08;;;;;;;17.92;6.35;;;-0.60;99.90;;;;;;5085964;28;20043;-86
2021/12/21 03:54:35;;;;;;;12.85;6.15;;;-0.80;99.90;;;;;;5075421;28;20028;-86
2021/12/21 03:57:01;;;;;;;12.98;5.70;;;-1.00;99.90;;;;;;5075403;28;20368;-86
2021/12/21 03:59:28;;;;;;;15.82;6.03;;;-0.80;99.90;;;;;;5075374;28;20031;-86
2021/12/21 04:01:54;;;;;;;15.93;6.43;;;-0.80;99.90;;;;;;5075292;28;20027;-86
2021/12/21 04:04:22;;;;;;;11.25;5.63;;;-0.80;99.90;;;;;;5075595;28;20542;-86
2021/12/21 04:06:48;;;;;;;16.77;6.00;;;-0.80;99.90;;;;;;5075313;28;20024;-86
2021/12/21 04:09:15;;;;;;;10.50;5.10;;;-0.90;99.90;;;;;;5093369;28;20024;-86
2021/12/21 04:11:41;;;;;;;10.35;5.18;;;-0.80;99.90;;;;;;5075123;28;20081;-87
2021/12/21 04:14:07;;;;;;;11.63;5.65;;;-0.80;99.90;;;;;;5093322;28;20027;-86
2021/12/21 04:16:33;;;;;;;13.10;5.68;;;-1.00;99.90;;;;;;5075126;28;20032;-86
2021/12/21 04:18:59;;;;;;;13.75;5.30;;;-1.20;99.90;;;;;;5093266;28;20020;-86
2021/12/21 04:21:25;;;;;;;14.25;5.72;;;-1.00;99.90;;;;;;5075118;28;20038;-86
2021/12/21 04:23:51;;;;;;;12.88;5.55;;;-1.10;99.90;;;;;;5075009;28;20024;-86
2021/12/21 04:26:17;;;;;;;14.10;6.40;;;-0.60;99.90;;;;;;5093243;28;20020;-86
2021/12/21 04:28:44;;;;;;;12.23;5.70;;;-0.70;99.90;;;;;;5093140;28;20384;-86
2021/12/21 04:31:10;;;;;;;17.90;6.45;;;-0.60;99.90;;;;;;5075013;28;20021;-86
2021/12/21 04:33:38;;;;;;;12.80;5.57;;;-0.70;99.90;;;;;;5074901;28;20028;-86
2021/12/21 04:36:05;;;;;;;10.25;5.47;;;-0.70;99.90;;;;;;5093028;28;20507;-86
2021/12/21 04:38:35;;;;;;;13.35;5.82;;;-0.40;99.90;;;;;;5074926;28;20031;-86
2021/12/21 04:41:12;;;;;;;16.38;5.93;;;-0.60;99.90;;;;;;5074942;28;20044;-86
2021/12/21 04:43:38;;;;;;;11.68;5.53;;;-0.70;99.90;;;;;;5074893;28;20032;-86
2021/12/21 04:46:03;;;;;;;17.90;5.72;;;-0.90;99.90;;;;;;5093055;28;20034;-86
2021/12/21 04:48:29;;;;;;;14.85;5.45;;;-0.80;99.90;;;;;;5074697;28;20430;-86
2021/12/21 04:50:55;;;;;;;11.05;5.32;;;-1.10;99.90;;;;;;5092978;28;20028;-86
2021/12/21 04:53:21;;;;;;;18.23;6.40;;;-1.20;99.90;;;;;;5074760;28;20384;-86
2021/12/21 04:55:48;;;;;;;15.40;5.97;;;-1.10;99.90;;;;;;5078768;28;20031;-86
2021/12/21 04:58:13;;;;;;;14.30;6.05;;;-1.10;99.90;;;;;;5078816;28;20024;-87
2021/12/21 05:00:40;;;;;;;12.00;5.65;;;-1.10;99.90;;;;;;5079071;28;20031;-87
2021/12/21 05:03:07;;;;;;;11.18;5.38;;;-0.90;99.90;;;;;;5078671;28;20024;-87
2021/12/21 05:05:33;;;;;;;13.82;6.25;;;-1.00;99.90;;;;;;5078737;28;20020;-87
2021/12/21 05:08:10;;;;;;;10.77;5.70;;;-1.10;99.90;;;;;;5096840;28;20498;-87
2021/12/21 05:10:45;;;;;;;13.32;5.55;;;-1.20;99.90;;;;;;5096783;28;20103;-87
2021/12/21 05:13:12;;;;;;;18.38;5.70;;;-1.10;99.90;;;;;;5078568;28;20480;-87
2021/12/21 05:15:38;;;;;;;17.17;5.75;;;-0.80;99.90;;;;;;5078781;28;20123;-87
2021/12/21 05:18:04;;;;;;;12.63;5.47;;;-0.50;99.90;;;;;;5096903;28;20048;-87
2021/12/21 05:20:29;;;;;;;16.80;6.65;;;-0.70;99.90;;;;;;5078377;28;20387;-87
2021/12/21 05:22:55;;;;;;;13.80;6.80;;;-0.70;99.90;;;;;;5078308;28;20105;-87
2021/12/21 05:25:21;;;;;;;13.70;6.20;;;-0.80;99.90;;;;;;5078281;28;20020;-87
2021/12/21 05:27:47;;;;;;;18.10;6.63;;;-0.50;99.90;;;;;;5096448;28;20027;-87
2021/12/21 05:30:14;;;;;;;10.63;6.00;;;-0.80;99.90;;;;;;5096446;28;20020;-87
2021/12/21 05:32:39;;;;;;;11.93;5.82;;;-0.80;99.90;;;;;;5096376;28;20471;-87
2021/12/21 05:35:06;;;;;;;12.13;5.60;;;-0.90;99.90;;;;;;5078115;28;20024;-87
2021/12/21 05:37:32;;;;;;;18.40;5.93;;;-0.70;99.90;;;;;;5078295;28;20157;-86
2021/12/21 05:40:10;;;;;;;17.05;6.05;;;-0.60;99.90;;;;;;5096137;28;20146;-87
2021/12/21 05:42:35;;;;;;;15.95;6.38;;;-0.60;99.90;;;;;;5078025;28;20035;-87
2021/12/21 05:45:03;;;;;;;18.27;6.65;;;-0.50;99.90;;;;;;5077936;28;20020;-87
2021/12/21 05:47:29;;;;;;;14.15;6.05;;;-0.60;99.90;;;;;;5077847;28;20028;-87
2021/12/21 05:49:54;;;;;;;16.38;7.50;;;-1.20;99.90;;;;;;5077816;28;20533;-87
2021/12/21 05:52:20;;;;;;;13.65;6.85;;;-1.50;99.90;;;;;;5077846;28;20115;-87
2021/12/21 05:54:46;;;;;;;14.60;7.50;;;-1.40;99.90;;;;;;5096024;28;20024;-87
2021/12/21 05:57:11;;;;;;;20.40;8.77;;;-1.30;99.90;;;;;;5095991;28;20025;-87
2021/12/21 05:59:37;;;;;;;14.93;6.72;;;-1.40;99.90;;;;;;5078027;28;20020;-87
2021/12/21 06:02:04;;;;;;;20.40;7.22;;;-1.60;99.90;;;;;;5077605;28;20028;-87
2021/12/21 06:04:29;;;;;;;15.77;6.47;;;-1.60;99.90;;;;;;5076707;28;20027;-87
2021/12/21 06:06:55;;;;;;;14.38;6.22;;;-1.50;99.90;;;;;;5076600;28;20110;-87
2021/12/21 06:09:21;;;;;;;19.33;7.28;;;-1.10;99.90;;;;;;5077548;28;20020;-87
2021/12/21 06:12:07;;;;;;;13.13;7.05;;;-1.30;99.90;;;;;;5095653;28;20085;-87
2021/12/21 06:25:43;;;;;;;13.27;6.03;;;-1.10;99.90;;;;;;5054052;28;19930;-87
2021/12/21 06:28:11;;;;;;;16.15;7.50;;;-1.30;99.90;;;;;;5095378;28;20052;-87
2021/12/21 06:30:39;;;;;;;19.65;6.93;;;-1.30;99.90;;;;;;5077122;28;20077;-87
2021/12/21 06:33:07;;;;;;;19.27;6.40;;;-1.00;99.90;;;;;;5077212;28;20028;-87
2021/12/21 06:35:33;;;;;;;17.80;6.47;;;-1.30;99.90;;;;;;5076899;28;20028;-86
2021/12/21 06:38:00;;;;;;;16.67;6.25;;;-1.00;99.90;;;;;;5076874;28;20024;-87
2021/12/21 06:40:26;;;;;;;21.67;6.47;;;-1.00;99.90;;;;;;5073489;28;20049;-86
2021/12/21 06:42:53;;;;;;;22.50;6.55;;;-1.20;99.90;;;;;;5090358;28;20024;-86
2021/12/21 06:45:30;;;;;;;14.52;6.40;;;-1.60;99.90;;;;;;5090469;28;20103;-87
2021/12/21 06:53:26;;;;;;;13.43;6.47;;;-1.30;99.90;;;;;;5074977;28;20075;-86
2021/12/21 06:55:51;;;;;;;15.48;6.38;;;-1.50;99.90;;;;;;5074662;28;20062;-86
2021/12/21 06:58:17;;;;;;;13.27;5.72;;;-1.50;99.90;;;;;;5090390;28;20044;-86
2021/12/21 07:00:44;;;;;;;17.58;6.32;;;-1.30;99.90;;;;;;5074700;28;20407;-86
2021/12/21 07:03:12;;;;;;;17.90;7.15;;;-1.40;99.90;;;;;;5090214;28;20059;-86
2021/12/21 07:05:40;;;;;;;19.80;7.65;;;-1.40;99.90;;;;;;5090027;28;20469;-86
2021/12/21 07:08:08;;;;;;;14.70;6.72;;;-1.70;99.90;;;;;;5089973;28;20112;-86
2021/12/21 07:10:37;;;;;;;14.52;7.22;;;-1.60;99.90;;;;;;5089846;28;20024;-87
2021/12/21 07:18:32;;;;;;;12.27;6.68;;;-1.70;99.90;;;;;;5073431;28;20048;-86
2021/12/21 07:21:00;;;;;;;13.93;7.10;;;-1.50;99.90;;;;;;5089739;28;20032;-86
2021/12/21 07:23:26;;;;;;;13.02;7.40;;;-1.30;99.90;;;;;;5073815;28;20021;-81
2021/12/21 07:25:52;;;;;;;13.38;6.28;;;-1.30;99.90;;;;;;5089540;28;20074;-81
2021/12/21 07:28:18;;;;;;;16.45;6.90;;;-1.20;99.90;;;;;;5074031;28;20036;-81
2021/12/21 07:30:44;;;;;;;15.50;7.43;;;-1.20;99.90;;;;;;5089521;28;20025;-81
2021/12/21 07:33:09;;;;;;;16.00;7.13;;;-1.20;99.90;;;;;;5089535;28;20166;-82
2021/12/21 07:35:35;;;;;;;14.18;7.00;;;-1.10;99.90;;;;;;5073754;28;20154;-81
2021/12/21 07:38:01;;;;;;;19.25;7.22;;;-1.30;99.90;;;;;;5089277;28;20116;-81
2021/12/21 07:40:58;;;;;;;14.23;7.30;;;-1.20;99.90;;;;;;5071115;28;20395;-80
2021/12/21 07:43:24;;;;;;;18.00;8.40;;;-0.90;99.90;;;;;;5052231;28;20029;-81
2021/12/21 07:45:50;;;;;;;20.08;9.30;;;-1.00;99.90;;;;;;5068964;28;20021;-81
2021/12/21 07:48:16;;;;;;;16.13;7.80;;;-1.30;99.90;;;;;;5068827;28;20440;-81
2021/12/21 07:50:42;;;;;;;17.52;8.23;;;-1.20;99.90;;;;;;5068886;28;20059;-81
2021/12/21 07:53:08;;;;;;;16.05;7.88;;;-1.40;99.90;;;;;;5070102;28;20050;-81
2021/12/21 07:55:34;;;;;;;19.35;7.75;;;-0.90;99.90;;;;;;5069920;28;20104;-81
2021/12/21 07:58:00;;;;;;;17.48;8.57;;;-0.70;99.90;;;;;;5068728;28;20059;-81
2021/12/21 08:00:26;;;;;;;19.17;8.13;;;-0.50;99.90;;;;;;5069885;28;20118;-80
2021/12/21 08:02:53;;;;;;;19.45;8.90;;;-0.30;99.90;;;;;;5069933;28;20021;-80
2021/12/21 08:05:19;;;;;;;16.10;7.22;;;-0.10;99.90;;;;;;5069884;28;20017;-80
2021/12/21 08:07:51;;;;;;;16.48;8.13;;;0.30;99.90;;;;;;5070030;28;20497;-80
2021/12/21 08:10:29;;;;;;;17.52;7.85;;;0.50;99.90;;;;;;5068720;28;20118;-79
2021/12/21 08:12:56;;;;;;;11.93;7.28;;;0.80;99.90;;;;;;5070228;28;20025;-80
2021/12/21 08:15:24;;;;;;;15.20;7.60;;;1.00;99.90;;;;;;5069688;28;20659;-79
2021/12/21 08:17:50;;;;;;;15.98;7.72;;;1.30;99.90;;;;;;5068375;28;20025;-79
2021/12/21 08:20:16;;;;;;;15.25;7.47;;;1.60;99.90;;;;;;5068199;28;20075;-79
2021/12/21 08:22:42;;;;;;;16.75;7.90;;;1.70;99.90;;;;;;5069556;28;20044;-79
2021/12/21 08:25:09;;;;;;;17.25;8.32;;;1.50;99.90;;;;;;5068166;28;20056;-79
2021/12/21 08:27:35;;;;;;;20.48;8.13;;;1.60;99.90;;;;;;5068350;28;20436;-79
2021/12/21 08:30:01;;;;;;;13.05;7.53;;;1.60;99.90;;;;;;5068044;28;20036;-79
2021/12/21 08:32:27;;;;;;;16.92;7.82;;;1.50;99.90;;;;;;5068009;28;20132;-79
2021/12/21 08:34:52;;;;;;;12.13;7.50;;;1.50;99.90;;;;;;5067942;28;20024;-78
2021/12/21 08:37:18;;;;;;;14.05;8.13;;;1.50;99.90;;;;;;5067857;28;20053;-78
2021/12/21 08:39:44;;;;;;;17.40;8.68;;;1.60;99.90;;;;;;5068835;28;20051;-78
2021/12/21 08:42:13;;;;;;;18.08;8.63;;;1.40;99.90;;;;;;5067764;28;20455;-78
2021/12/21 08:44:47;;;;;;;20.67;10.82;;;1.60;99.90;;;;;;5069047;28;20012;-78
2021/12/21 08:47:13;;;;;;;;;;;1.60;99.90;;;;;;5068146;28;20021;-78
2021/12/21 08:49:39;;;;;;;24.13;9.00;;;1.60;99.90;;;;;;5067700;28;19967;-78
2021/12/21 08:52:05;;;;;;;20.15;8.95;;;1.60;99.90;;;;;;5054903;28;20033;-78
2021/12/21 08:54:31;;;;;;;20.80;8.88;;;1.50;99.90;;;;;;5054319;28;20107;-78
2021/12/21 08:56:57;;;;;;;23.75;9.27;;;1.50;99.90;;;;;;5055663;28;20365;-78
2021/12/21 08:59:22;;;;;;;19.63;8.45;;;1.60;99.90;;;;;;5055486;28;20036;-78
2021/12/21 09:01:51;;;;;;;19.02;9.02;;;1.50;99.90;;;;;;5054253;28;20029;-78
2021/12/21 09:04:19;;;;;;;24.58;10.93;;;1.70;99.90;;;;;;5054537;28;20126;-77
2021/12/21 09:06:45;;;;;;;20.15;9.77;;;1.80;99.90;;;;;;5055760;28;20024;-78
2021/12/21 09:09:11;;;;;;;19.48;9.05;;;1.80;99.90;;;;;;5055411;28;20032;-77
2021/12/21 09:11:38;;;;;;;20.95;10.40;;;1.90;99.90;;;;;;5054065;28;20392;-78
2021/12/21 09:14:04;;;;;;;20.83;10.13;;;2.00;99.90;;;;;;5055277;28;20524;-78
2021/12/21 09:16:30;;;;;;;24.27;9.75;;;2.10;99.90;;;;;;5053898;28;20029;-77
2021/12/21 09:18:56;;;;;;;20.85;10.13;;;2.20;99.90;;;;;;5055165;28;20473;-77
2021/12/21 09:21:21;;;;;;;23.23;11.18;;;2.20;99.90;;;;;;5053919;28;20025;-78
2021/12/21 09:23:47;;;;;;;26.23;11.43;;;2.40;99.90;;;;;;5053812;28;20087;-77
2021/12/21 09:26:13;;;;;;;22.58;9.85;;;2.70;99.90;;;;;;5055082;28;20021;-77
2021/12/21 09:28:39;;;;;;;23.30;10.82;;;2.50;99.90;;;;;;5055062;28;20021;-77
2021/12/21 09:31:05;;;;;;;19.85;10.13;;;2.60;99.90;;;;;;5055025;28;20096;-77
2021/12/21 09:33:31;;;;;;;20.83;10.73;;;3.00;99.90;;;;;;5053649;28;20404;-77
2021/12/21 09:35:57;;;;;;;19.33;9.68;;;3.20;99.90;;;;;;5054944;28;20028;-77
2021/12/21 09:38:22;;;;;;;22.40;10.10;;;3.00;99.90;;;;;;5053544;28;20021;-78
2021/12/21 09:40:48;;;;;;;17.98;9.75;;;3.50;99.90;;;;;;5054569;28;20040;-77
2021/12/21 09:43:14;;;;;;;24.98;11.35;;;3.70;99.90;;;;;;5054768;28;20025;-78
2021/12/21 09:45:40;;;;;;;61.17;28.60;;;3.70;99.90;;;;;;5054717;28;20056;-78
2021/12/21 09:48:06;;;;;;;58.42;23.58;;;3.90;99.90;;;;;;5054587;28;20021;-79
2021/12/21 09:50:33;;;;;;;40.72;19.13;;;4.00;99.90;;;;;;5054883;28;20029;-79
2021/12/21 09:52:59;;;;;;;56.08;24.45;;;4.20;99.90;;;;;;5054561;28;20025;-79
2021/12/21 09:55:25;;;;;;;75.05;32.35;;;4.20;99.90;;;;;;5054573;28;20388;-79
2021/12/21 09:57:53;;;;;;;111.72;47.78;;;3.90;99.90;;;;;;5053148;28;20033;-79
2021/12/21 10:00:22;;;;;;;147.25;59.63;;;4.20;99.90;;;;;;5053041;28;20087;-80
2021/12/21 10:02:48;;;;;;;106.00;42.92;;;4.40;99.90;;;;;;5052036;28;20029;-80
2021/12/21 10:05:19;;;;;;;93.70;39.22;;;4.40;99.90;;;;;;5052999;28;20090;-80
2021/12/21 10:07:56;;;;;;;106.40;45.10;;;4.60;99.90;;;;;;5053008;28;20025;-80
2021/12/21 10:10:21;;;;;;;120.60;52.33;;;4.50;99.90;;;;;;5054507;28;20098;-80
2021/12/21 10:12:47;;;;;;;62.78;27.73;;;4.40;99.90;;;;;;5052851;28;20021;-80
2021/12/21 10:15:24;;;;;;;77.57;32.42;;;4.80;99.90;;;;;;5054124;28;20127;-81
2021/12/21 10:17:57;;;;;;;120.65;53.20;;;4.90;99.90;;;;;;5052803;28;20021;-80
2021/12/21 10:20:38;;;;;;;140.63;60.25;;;4.30;99.90;;;;;;5054193;28;20501;-80
2021/12/21 10:23:23;;;;;;;107.47;47.38;;;4.10;99.90;;;;;;5053926;28;20056;-81
2021/12/21 10:25:51;;;;;;;82.05;37.20;;;4.30;99.90;;;;;;5053921;28;20527;-81
2021/12/21 10:28:37;;;;;;;60.65;27.80;;;4.50;99.90;;;;;;5053816;28;20097;-81
2021/12/21 10:31:06;;;;;;;53.15;22.00;;;4.10;99.90;;;;;;5052468;28;20040;-81
2021/12/21 10:33:33;;;;;;;45.58;20.15;;;4.00;99.90;;;;;;5052775;28;20477;-80
2021/12/21 10:36:01;;;;;;;53.30;21.50;;;3.80;99.90;;;;;;5052387;28;20017;-81
2021/12/21 10:38:30;;;;;;;26.58;12.23;;;3.60;99.90;;;;;;5052283;28;20049;-81
2021/12/21 10:41:04;;;;;;;27.77;12.77;;;3.70;99.90;;;;;;5052338;28;20037;-81
2021/12/21 10:43:30;;;;;;;39.15;17.67;;;3.70;99.90;;;;;;5052337;28;20029;-81
2021/12/21 10:45:56;;;;;;;28.77;12.85;;;3.70;99.90;;;;;;5053829;28;20044;-81
2021/12/21 10:48:23;;;;;;;54.40;24.17;;;3.80;99.90;;;;;;5053698;28;20029;-81
2021/12/21 10:50:49;;;;;;;35.40;15.50;;;4.10;99.90;;;;;;5052131;28;20028;-81
2021/12/21 10:53:21;;;;;;;24.77;10.43;;;4.60;99.90;;;;;;5052467;28;20473;-85
2021/12/21 10:55:47;;;;;;;34.38;16.25;;;4.60;99.90;;;;;;5052585;28;20025;-82
2021/12/21 10:58:16;;;;;;;25.50;11.88;;;4.40;99.90;;;;;;5051964;28;20072;-82
2021/12/21 11:00:53;;;;;;;28.35;12.35;;;4.60;99.90;;;;;;5052096;28;20109;-81
2021/12/21 11:03:29;;;;;;;27.02;14.27;;;4.80;99.90;;;;;;5052026;28;20047;-81
2021/12/21 11:05:55;;;;;;;26.10;8.73;;;5.10;99.90;;;;;;5052094;28;20032;-81
2021/12/21 11:08:27;;;;;;;13.02;6.68;;;5.10;99.90;;;;;;5051926;28;20033;-80
2021/12/21 11:10:58;;;;;;;19.08;6.47;;;5.00;99.90;;;;;;5051813;28;20071;-81
2021/12/21 11:13:24;;;;;;;19.40;8.05;;;4.90;99.90;;;;;;5051619;28;20112;-82
2021/12/21 11:15:53;;;;;;;20.35;7.53;;;5.00;99.90;;;;;;5051740;28;20048;-81
2021/12/21 11:18:20;;;;;;;21.42;7.85;;;5.00;99.90;;;;;;5051749;28;20024;-81
2021/12/21 11:20:49;;;;;;;19.85;8.82;;;4.90;99.90;;;;;;5051631;28;20029;-82
2021/12/21 11:23:17;;;;;;;15.43;7.93;;;5.30;99.90;;;;;;5051860;28;20032;-82
2021/12/21 11:25:47;;;;;;;20.33;11.43;;;5.10;99.90;;;;;;5051611;28;20075;-82
2021/12/21 11:28:16;;;;;;;17.10;6.03;;;5.20;99.90;;;;;;5051554;28;20060;-82
2021/12/21 11:30:42;;;;;;;23.80;8.02;;;5.40;99.90;;;;;;5051555;28;20025;-81
2021/12/21 11:33:11;;;;;;;13.15;6.90;;;5.80;99.90;;;;;;5052118;28;20431;-81
2021/12/21 11:38:08;;;;;;;19.98;9.25;;;6.20;99.90;;;;;;5053069;28;20087;-82
2021/12/21 11:40:38;;;;;;;15.40;5.88;;;6.10;99.90;;;;;;5052584;28;20098;-82
2021/12/21 11:43:27;;;;;;;14.25;7.13;;;5.80;99.90;;;;;;5051379;28;20017;-81
2021/12/21 11:46:01;;;;;;;15.57;6.63;;;6.00;99.90;;;;;;5052677;28;20053;-82
2021/12/21 11:48:57;;;;;;;21.48;9.32;;;6.40;99.90;;;;;;5052628;28;20061;-82
2021/12/21 11:51:27;;;;;;;25.45;12.73;;;7.00;99.90;;;;;;5051417;28;20025;-82
2021/12/21 11:53:54;;;;;;;16.88;6.38;;;7.60;99.90;;;;;;5051366;28;20021;-82
2021/12/21 11:56:24;;;;;;;11.90;6.32;;;7.70;99.90;;;;;;5051345;28;20033;-82
2021/12/21 11:58:55;;;;;;;9.60;4.90;;;7.90;99.90;;;;;;5052634;28;20052;-82
2021/12/21 12:01:27;;;;;;;17.55;8.38;;;7.50;99.90;;;;;;5051395;28;20025;-82
2021/12/21 12:04:00;;;;;;;14.80;7.05;;;7.10;99.90;;;;;;5051351;28;20022;-81
2021/12/21 12:06:41;;;;;;;11.20;4.53;;;7.30;99.90;;;;;;5051236;28;20061;-80
2021/12/21 12:09:07;;;;;;;17.55;6.53;;;7.30;99.90;;;;;;5051305;28;20048;-79
2021/12/21 12:11:39;;;;;;;9.48;4.32;;;7.70;99.90;;;;;;5051233;28;20021;-79
2021/12/21 12:14:20;;;;;;;12.27;5.90;;;7.90;99.90;;;;;;5052722;28;20032;-79
2021/12/21 12:16:52;;;;;;;17.88;5.93;;;8.50;99.90;;;;;;5052892;28;20473;-79
2021/12/21 12:19:29;;;;;;;10.88;4.45;;;8.50;99.90;;;;;;5051158;28;20032;-79
2021/12/21 12:22:03;;;;;;;12.80;4.28;;;9.00;99.90;;;;;;5051114;28;20052;-79
2021/12/21 12:24:34;;;;;;;11.98;5.25;;;9.00;99.90;;;;;;5051396;28;20036;-79
2021/12/21 12:27:09;;;;;;;13.30;4.75;;;9.30;99.90;;;;;;5053971;28;20028;-79
2021/12/21 12:30:00;;;;;;;;;;;8.40;99.90;;;;;;5056789;28;20021;-80
2021/12/21 12:32:35;;;;;;;11.70;4.30;;;8.80;99.90;;;;;;5055318;28;19905;-80
2021/12/21 12:35:08;;;;;;;;;;;8.80;99.90;;;;;;5055462;28;20148;-79
2021/12/21 12:37:50;;;;;;;8.20;4.47;;;8.80;99.90;;;;;;5054915;28;19909;-80
2021/12/21 12:40:18;;;;;;;22.13;10.07;;;8.90;99.90;;;;;;5054639;28;20611;-79
2021/12/21 12:43:12;;;;;;;8.80;4.32;;;8.00;99.90;;;;;;5054809;28;20101;-79
2021/12/21 12:45:54;;;;;;;12.27;5.43;;;7.50;99.90;;;;;;5054804;28;20503;-79
2021/12/21 12:48:31;;;;;;;10.57;4.72;;;7.90;99.90;;;;;;5054661;28;20028;-80
2021/12/21 12:51:01;;;;;;;12.13;4.57;;;8.10;99.90;;;;;;5054719;28;20078;-80
2021/12/21 12:53:44;;;;;;;10.43;3.47;;;8.60;99.90;;;;;;5054740;28;20021;-80
2021/12/21 12:56:14;;;;;;;11.15;3.45;;;8.90;99.90;;;;;;5055928;28;20024;-80
2021/12/21 12:58:56;;;;;;;11.50;3.83;;;8.90;99.90;;;;;;5054788;28;20033;-80
2021/12/21 13:01:25;;;;;;;7.18;3.75;;;9.60;99.90;;;;;;5054493;28;20025;-80
2021/12/21 13:03:58;;;;;;;7.82;3.90;;;10.20;99.90;;;;;;5055723;28;20024;-80
2021/12/21 13:06:27;;;;;;;15.88;4.57;;;10.50;99.90;;;;;;5054400;28;20022;-81
2021/12/21 13:08:53;;;;;;;9.38;3.22;;;10.80;99.90;;;;;;5055583;28;20477;-80
2021/12/21 13:11:26;;;;;;;16.63;7.22;;;10.40;99.90;;;;;;5054302;28;20562;-80
2021/12/21 13:13:54;;;;;;;10.15;4.32;;;10.60;99.90;;;;;;5054189;28;20036;-80
2021/12/21 13:16:25;;;;;;;11.90;4.50;;;10.90;99.90;;;;;;5054225;28;20079;-80
2021/12/21 13:18:52;;;;;;;7.93;4.13;;;11.40;99.40;;;;;;5054028;28;20031;-80
2021/12/21 13:21:20;;;;;;;8.48;4.38;;;11.50;97.90;;;;;;5054129;28;20078;-80
2021/12/21 13:23:49;;;;;;;11.00;3.88;;;11.30;97.40;;;;;;5054050;28;20388;-80
2021/12/21 13:26:16;;;;;;;16.40;4.35;;;11.70;97.10;;;;;;5055267;28;20082;-80
2021/12/21 13:28:50;;;;;;;7.35;3.55;;;10.90;98.00;;;;;;5053958;28;20047;-80
2021/12/21 13:31:18;;;;;;;7.07;3.80;;;11.60;96.40;;;;;;5053934;28;20021;-84
2021/12/21 13:33:48;;;;;;;6.93;3.30;;;11.90;96.60;;;;;;5053841;28;20025;-81